createdAt,value
2019-02-22T00:00:33.888Z,51.70
2019-02-22T00:03:04.860Z,55.70
2019-02-22T00:05:35.929Z,56.00
2019-02-22T00:08:14.361Z,59.47
2019-02-22T00:10:45.488Z,52.43
2019-02-22T00:13:16.729Z,54.57
2019-02-22T00:15:48.658Z,53.47
2019-02-22T00:18:20.251Z,50.23
2019-02-22T00:20:51.053Z,55.57
2019-02-22T00:23:22.112Z,58.03
2019-02-22T00:25:53.442Z,54.70
2019-02-22T00:28:24.611Z,59.53
2019-02-22T00:30:55.292Z,51.63
2019-02-22T00:33:26.524Z,60.03
2019-02-22T00:35:57.369Z,58.00
2019-02-22T00:38:28.696Z,57.47
2019-02-22T00:40:59.781Z,53.20
2019-02-22T00:43:31.079Z,50.67
2019-02-22T00:46:03.385Z,57.93
2019-02-22T00:48:34.488Z,54.60
2019-02-22T00:51:05.972Z,58.87
2019-02-22T00:53:38.408Z,56.47
2019-02-22T00:56:09.354Z,61.17
2019-02-22T00:58:40.467Z,55.03
2019-02-22T01:01:11.841Z,55.03
2019-02-22T01:03:44.015Z,52.40
2019-02-22T01:06:15.168Z,48.90
2019-02-22T01:08:46.148Z,58.07
2019-02-22T01:11:17.385Z,54.27
2019-02-22T01:13:48.916Z,53.80
2019-02-22T01:16:20.242Z,51.77
2019-02-22T01:18:51.263Z,58.90
2019-02-22T01:21:22.239Z,54.57
2019-02-22T01:23:53.145Z,53.03
2019-02-22T01:26:24.242Z,56.60
2019-02-22T01:28:54.990Z,54.63
2019-02-22T01:31:29.952Z,62.63
2019-02-22T01:34:00.752Z,49.87
2019-02-22T01:36:31.846Z,54.30
2019-02-22T01:39:03.457Z,56.70
2019-02-22T01:41:36.072Z,52.17
2019-02-22T01:44:08.322Z,49.73
2019-02-22T01:46:39.579Z,58.73
2019-02-22T01:49:10.500Z,51.80
2019-02-22T01:51:41.824Z,56.10
2019-02-22T01:54:12.867Z,57.37
2019-02-22T01:56:44.021Z,64.37
2019-02-22T02:02:41.470Z,61.53
2019-02-22T02:05:12.439Z,54.83
2019-02-22T02:07:43.404Z,54.97
2019-02-22T02:10:14.484Z,54.83
2019-02-22T02:12:53.598Z,59.03
2019-02-22T02:15:26.128Z,63.40
2019-02-22T02:17:56.833Z,58.97
2019-02-22T02:20:27.916Z,48.50
2019-02-22T02:22:58.874Z,58.43
2019-02-22T02:25:30.180Z,54.00
2019-02-22T02:28:01.063Z,57.37
2019-02-22T02:30:32.147Z,53.00
2019-02-22T02:33:03.430Z,52.40
2019-02-22T02:35:34.441Z,50.87
2019-02-22T02:38:05.435Z,52.50
2019-02-22T02:40:36.669Z,53.10
2019-02-22T02:43:09.316Z,47.97
2019-02-22T02:45:40.873Z,55.83
2019-02-22T02:48:12.084Z,52.83
2019-02-22T02:50:43.139Z,61.87
2019-02-22T02:53:14.308Z,53.97
2019-02-22T02:55:45.315Z,51.00
2019-02-22T02:58:16.542Z,57.97
2019-02-22T03:00:47.441Z,56.87
2019-02-22T03:03:18.592Z,63.60
2019-02-22T03:06:02.124Z,59.33
2019-02-22T03:08:35.131Z,50.93
2019-02-22T03:11:06.155Z,55.37
2019-02-22T03:13:37.122Z,52.87
2019-02-22T03:16:08.304Z,55.10
2019-02-22T03:18:39.379Z,51.60
2019-02-22T03:21:10.442Z,56.07
2019-02-22T03:23:41.451Z,49.63
2019-02-22T03:26:12.470Z,51.40
2019-02-22T03:28:43.578Z,45.10
2019-02-22T03:31:14.578Z,50.80
2019-02-22T03:33:45.634Z,52.57
2019-02-22T03:36:17.406Z,44.33
2019-02-22T03:38:49.165Z,46.03
2019-02-22T03:41:31.911Z,43.40
2019-02-22T03:43:52.771Z,40.57
2019-02-22T03:46:23.902Z,40.27
2019-02-22T03:48:54.799Z,35.67
2019-02-22T03:51:25.779Z,39.83
2019-02-22T03:53:58.987Z,38.90
2019-02-22T03:56:30.027Z,41.57
2019-02-22T03:59:07.765Z,40.97
2019-02-22T04:01:38.601Z,38.07
2019-02-22T04:04:09.641Z,43.93
2019-02-22T04:06:40.824Z,41.43
2019-02-22T04:09:12.791Z,37.37
2019-02-22T04:11:46.091Z,42.97
2019-02-22T04:14:16.620Z,44.67
2019-02-22T04:16:47.564Z,38.57
2019-02-22T04:19:26.707Z,44.33
2019-02-22T04:21:58.090Z,41.73
2019-02-22T04:24:30.071Z,49.63
2019-02-22T04:27:01.147Z,51.33
2019-02-22T04:29:32.240Z,48.10
2019-02-22T04:32:03.303Z,41.53
2019-02-22T04:34:34.267Z,36.83
2019-02-22T04:37:05.384Z,36.10
2019-02-22T04:39:36.558Z,32.80
2019-02-22T04:42:07.655Z,36.47
2019-02-22T04:44:38.716Z,39.30
2019-02-22T04:47:09.751Z,31.43
2019-02-22T04:49:40.844Z,41.07
2019-02-22T04:52:12.055Z,34.63
2019-02-22T04:54:43.128Z,35.47
2019-02-22T04:57:14.136Z,33.87
2019-02-22T04:59:45.186Z,39.03
2019-02-22T05:02:16.212Z,34.97
2019-02-22T05:04:47.276Z,32.60
2019-02-22T05:07:18.363Z,40.07
2019-02-22T05:09:49.444Z,32.90
2019-02-22T05:12:20.494Z,38.43
2019-02-22T05:14:51.111Z,34.80
2019-02-22T05:17:22.217Z,42.53
2019-02-22T05:19:52.883Z,37.10
2019-02-22T05:22:23.898Z,36.80
2019-02-22T05:24:55.089Z,38.20
2019-02-22T05:27:26.098Z,30.93
2019-02-22T05:29:56.746Z,36.93
2019-02-22T05:32:28.161Z,33.43
2019-02-22T05:34:59.191Z,34.20
2019-02-22T05:37:30.387Z,30.57
2019-02-22T05:40:01.693Z,34.10
2019-02-22T05:42:33.761Z,33.03
2019-02-22T05:45:05.136Z,44.87
2019-02-22T05:47:36.311Z,32.73
2019-02-22T05:50:07.522Z,29.83
2019-02-22T05:52:38.509Z,37.77
2019-02-22T05:55:09.605Z,41.30
2019-02-22T05:57:40.695Z,32.50
2019-02-22T06:00:11.925Z,44.00
2019-02-22T06:02:43.209Z,38.10
2019-02-22T06:05:14.377Z,42.30
2019-02-22T06:07:46.063Z,34.50
2019-02-22T06:10:17.100Z,36.33
2019-02-22T06:12:48.412Z,44.60
2019-02-22T06:15:19.650Z,39.00
2019-02-22T06:17:50.477Z,40.70
2019-02-22T06:20:21.647Z,36.63
2019-02-22T06:22:52.708Z,44.37
2019-02-22T06:25:23.857Z,38.93
2019-02-22T06:27:54.916Z,42.70
2019-02-22T06:30:26.042Z,43.80
2019-02-22T06:32:56.691Z,42.80
2019-02-22T06:35:27.743Z,35.27
2019-02-22T06:37:58.402Z,37.30
2019-02-22T06:40:29.484Z,37.30
2019-02-22T06:43:00.612Z,35.40
2019-02-22T06:45:35.215Z,47.10
2019-02-22T06:48:06.603Z,41.33
2019-02-22T06:50:38.882Z,40.07
2019-02-22T06:53:10.014Z,42.50
2019-02-22T06:55:41.169Z,37.77
2019-02-22T06:58:13.579Z,40.60
2019-02-22T07:00:44.620Z,41.00
2019-02-22T07:03:15.762Z,54.37
2019-02-22T07:05:46.863Z,51.63
2019-02-22T07:08:18.096Z,47.60
2019-02-22T07:11:08.987Z,39.77
2019-02-22T07:13:40.249Z,56.03
2019-02-22T07:16:11.429Z,37.07
2019-02-22T07:18:42.523Z,42.90
2019-02-22T07:21:13.600Z,51.10
2019-02-22T07:23:44.726Z,43.80
2019-02-22T07:26:17.085Z,43.03
2019-02-22T07:28:48.205Z,48.80
2019-02-22T07:31:19.254Z,43.63
2019-02-22T07:33:50.057Z,51.90
2019-02-22T07:36:21.270Z,51.27
2019-02-22T07:38:52.251Z,77.93
2019-02-22T07:41:26.723Z,40.90
2019-02-22T07:43:57.413Z,60.77
2019-02-22T07:46:28.511Z,56.10
2019-02-22T07:48:59.908Z,52.80
2019-02-22T07:51:31.239Z,55.70
2019-02-22T07:54:02.408Z,40.97
2019-02-22T07:56:33.391Z,59.23
2019-02-22T07:59:04.522Z,51.90
2019-02-22T08:01:46.583Z,48.43
2019-02-22T08:04:08.655Z,57.13
2019-02-22T08:06:42.431Z,50.50
2019-02-22T08:09:13.663Z,69.67
2019-02-22T08:11:47.402Z,53.00
2019-02-22T08:14:17.662Z,50.83
2019-02-22T08:16:48.554Z,63.63
2019-02-22T08:19:19.647Z,57.67
2019-02-22T08:21:50.541Z,71.57
2019-02-22T08:24:21.457Z,52.47
2019-02-22T08:26:52.592Z,47.50
2019-02-22T08:29:23.672Z,65.53
2019-02-22T08:31:54.328Z,59.90
2019-02-22T08:34:25.644Z,70.33
2019-02-22T08:36:56.338Z,55.30
2019-02-22T08:39:27.692Z,52.73
2019-02-22T08:41:58.405Z,57.80
2019-02-22T08:44:29.850Z,60.80
2019-02-22T08:47:02.623Z,53.07
2019-02-22T08:49:33.863Z,56.63
2019-02-22T08:52:04.728Z,58.37
2019-02-22T08:54:46.259Z,56.60
2019-02-22T08:57:08.040Z,60.10
2019-02-22T08:59:38.981Z,63.73
2019-02-22T09:02:10.339Z,48.10
2019-02-22T09:04:45.163Z,66.73
2019-02-22T09:07:16.374Z,57.63
2019-02-22T09:09:48.056Z,47.10
2019-02-22T09:12:23.873Z,59.80
2019-02-22T09:14:55.480Z,58.40
2019-02-22T09:17:26.691Z,63.43
2019-02-22T09:19:58.456Z,57.77
2019-02-22T09:22:29.672Z,54.20
2019-02-22T09:25:00.745Z,44.53
2019-02-22T09:27:32.625Z,48.23
2019-02-22T09:30:03.742Z,59.73
2019-02-22T09:32:34.852Z,66.27
2019-02-22T09:35:06.372Z,52.40
2019-02-22T09:37:37.551Z,58.13
2019-02-22T09:40:10.218Z,44.87
2019-02-22T09:42:41.287Z,47.60
2019-02-22T09:45:12.591Z,44.60
2019-02-22T09:47:44.130Z,57.83
2019-02-22T09:50:15.118Z,72.33
2019-02-22T09:52:46.204Z,49.63
2019-02-22T09:55:17.258Z,44.50
2019-02-22T09:57:48.273Z,43.90
2019-02-22T10:00:19.534Z,49.13
2019-02-22T10:02:50.638Z,52.57
2019-02-22T10:05:21.776Z,50.77
2019-02-22T10:07:52.593Z,50.67
2019-02-22T10:10:23.731Z,50.80
2019-02-22T10:12:54.764Z,47.40
2019-02-22T10:15:25.777Z,53.97
2019-02-22T10:17:56.509Z,49.47
2019-02-22T10:20:28.571Z,60.37
2019-02-22T10:22:59.476Z,51.70
2019-02-22T10:25:30.487Z,64.27
2019-02-22T10:28:01.598Z,44.33
2019-02-22T10:30:32.561Z,63.87
2019-02-22T10:33:04.907Z,48.57
2019-02-22T10:35:43.471Z,53.43
2019-02-22T10:38:14.998Z,54.57
2019-02-22T10:40:46.103Z,61.70
2019-02-22T10:43:17.497Z,55.30
2019-02-22T10:46:22.442Z,56.33
2019-02-22T10:48:53.267Z,58.57
2019-02-22T10:51:24.267Z,65.40
2019-02-22T10:53:54.918Z,62.03
2019-02-22T10:56:30.295Z,54.83
2019-02-22T10:59:02.342Z,52.00
2019-02-22T11:01:33.838Z,66.83
2019-02-22T11:04:05.143Z,54.67
2019-02-22T11:06:36.301Z,44.50
2019-02-22T11:09:08.484Z,28.03
2019-02-22T11:11:40.628Z,18.43
2019-02-22T11:14:12.543Z,23.23
2019-02-22T11:16:43.731Z,20.37
2019-02-22T11:19:14.914Z,22.73
2019-02-22T11:21:46.113Z,15.83
2019-02-22T11:24:19.866Z,18.93
2019-02-22T11:26:50.721Z,26.40
2019-02-22T11:29:21.910Z,21.77
2019-02-22T11:31:52.618Z,16.30
2019-02-22T11:34:23.762Z,17.40
2019-02-22T11:36:55.141Z,17.97
2019-02-22T11:39:26.335Z,28.67
2019-02-22T11:41:57.453Z,21.23
2019-02-22T11:44:39.619Z,24.33
2019-02-22T11:47:01.176Z,21.33
2019-02-22T11:49:35.760Z,20.50
2019-02-22T11:52:06.851Z,19.07
2019-02-22T11:54:37.923Z,25.07
2019-02-22T11:57:09.203Z,19.97
2019-02-22T11:59:40.359Z,21.47
2019-02-22T12:02:11.434Z,21.07
2019-02-22T12:04:43.090Z,16.97
2019-02-22T12:07:14.667Z,20.90
2019-02-22T12:09:45.811Z,21.97
2019-02-22T12:12:16.927Z,17.30
2019-02-22T12:14:51.563Z,21.83
2019-02-22T12:17:20.848Z,22.67
2019-02-22T12:19:51.601Z,23.13
2019-02-22T12:22:23.029Z,21.83
2019-02-22T12:24:54.125Z,19.57
2019-02-22T12:27:25.461Z,22.20
2019-02-22T12:29:56.190Z,17.53
2019-02-22T12:32:27.186Z,16.07
2019-02-22T12:34:57.873Z,22.83
2019-02-22T12:37:29.133Z,15.73
2019-02-22T12:40:00.572Z,19.73
2019-02-22T12:43:43.287Z,26.20
2019-02-22T12:46:14.697Z,26.10
2019-02-22T12:48:45.863Z,15.50
2019-02-22T12:51:16.881Z,17.77
2019-02-22T12:53:48.009Z,26.57
2019-02-22T12:56:21.446Z,20.27
2019-02-22T12:58:51.605Z,21.13
2019-02-22T13:01:24.557Z,21.03
2019-02-22T13:03:56.196Z,23.63
2019-02-22T13:06:32.548Z,20.30
2019-02-22T13:09:06.545Z,22.33
2019-02-22T13:11:40.612Z,20.60
2019-02-22T13:14:14.211Z,21.53
2019-02-22T13:16:47.761Z,11.20
2019-02-22T13:19:21.014Z,20.40
2019-02-22T13:21:52.247Z,19.33
2019-02-22T13:24:23.452Z,16.53
2019-02-22T13:26:54.211Z,15.70
2019-02-22T13:29:25.400Z,23.73
2019-02-22T13:31:56.470Z,23.60
2019-02-22T13:34:27.713Z,27.33
2019-02-22T13:36:58.996Z,18.77
2019-02-22T13:39:30.100Z,17.93
2019-02-22T13:42:04.674Z,13.77
2019-02-22T13:44:35.810Z,12.57
2019-02-22T13:47:07.260Z,20.63
2019-02-22T13:49:38.278Z,13.00
2019-02-22T13:52:09.476Z,21.03
2019-02-22T13:54:40.639Z,21.03
2019-02-22T14:04:49.315Z,14.17
2019-02-22T14:07:20.480Z,14.63
2019-02-22T14:09:51.510Z,13.47
2019-02-22T14:12:22.603Z,15.30
2019-02-22T14:14:53.504Z,18.10
2019-02-22T14:17:24.612Z,16.70
2019-02-22T14:19:55.324Z,15.00
2019-02-22T14:22:26.738Z,14.83
2019-02-22T14:24:57.631Z,22.90
2019-02-22T14:27:28.680Z,33.63
2019-02-22T14:29:59.469Z,30.20
2019-02-22T14:32:39.301Z,24.03
2019-02-22T14:35:10.512Z,31.67
2019-02-22T14:37:41.694Z,33.03
2019-02-22T14:40:13.123Z,31.43
2019-02-22T14:42:44.310Z,27.40
2019-02-22T14:45:16.487Z,34.77
2019-02-22T14:47:47.713Z,55.67
2019-02-22T14:50:19.063Z,31.63
2019-02-22T14:52:50.128Z,46.00
2019-02-22T14:55:21.759Z,27.90
2019-02-22T14:58:22.747Z,31.70
2019-02-22T15:00:53.452Z,31.53
2019-02-22T15:03:25.795Z,36.10
2019-02-22T15:05:56.829Z,45.87
2019-02-22T15:09:28.016Z,32.10
2019-02-22T15:12:02.157Z,23.37
2019-02-22T15:14:36.490Z,29.33
2019-02-22T15:17:45.052Z,28.77
2019-02-22T15:20:16.106Z,32.17
2019-02-22T15:22:47.317Z,38.83
2019-02-22T15:25:18.436Z,26.93
2019-02-22T15:27:49.516Z,40.17
2019-02-22T15:30:38.854Z,26.60
2019-02-22T15:33:09.969Z,20.00
2019-02-22T15:35:44.390Z,25.67
2019-02-22T15:38:15.995Z,33.17
2019-02-22T15:40:47.243Z,33.27
2019-02-22T15:43:18.270Z,30.53
2019-02-22T15:45:49.736Z,23.77
2019-02-22T15:48:23.888Z,40.60
2019-02-22T15:50:55.111Z,23.93
2019-02-22T15:53:28.788Z,26.27
2019-02-22T15:55:59.651Z,28.27
2019-02-22T15:58:31.816Z,26.40
2019-02-22T16:01:02.629Z,30.50
2019-02-22T16:04:11.291Z,29.33
2019-02-22T16:06:42.579Z,23.87
2019-02-22T16:09:14.296Z,27.33
2019-02-22T16:11:46.821Z,37.93
2019-02-22T16:14:17.924Z,34.57
2019-02-22T16:16:50.070Z,44.20
2019-02-22T16:19:21.489Z,31.13
2019-02-22T16:21:52.767Z,33.93
2019-02-22T16:24:23.608Z,35.53
2019-02-22T16:27:12.798Z,36.63
2019-02-22T16:29:44.144Z,31.90
2019-02-22T16:32:15.328Z,40.40
2019-02-22T16:34:47.173Z,28.37
2019-02-22T16:37:18.730Z,33.30
2019-02-22T16:39:52.370Z,25.60
2019-02-22T16:42:22.925Z,36.20
2019-02-22T16:44:54.243Z,27.50
2019-02-22T16:47:25.615Z,34.97
2019-02-22T16:49:56.633Z,31.83
2019-02-22T16:52:27.837Z,40.30
2019-02-22T16:54:58.608Z,28.10
2019-02-22T16:57:30.035Z,33.30
2019-02-22T17:00:04.410Z,26.83
2019-02-22T17:02:37.304Z,26.93
2019-02-22T17:05:09.488Z,40.10
2019-02-22T17:07:57.526Z,30.23
2019-02-22T17:10:29.069Z,37.00
2019-02-22T17:13:00.053Z,44.33
2019-02-22T17:15:32.115Z,30.63
2019-02-22T17:18:03.666Z,28.93
2019-02-22T17:20:46.603Z,27.27
2019-02-22T17:23:18.464Z,39.40
2019-02-22T17:25:49.999Z,25.93
2019-02-22T17:28:22.120Z,28.47
2019-02-22T17:30:55.160Z,32.17
2019-02-22T17:33:26.598Z,34.40
2019-02-22T17:35:58.268Z,29.27
2019-02-22T17:38:30.681Z,27.90
2019-02-22T17:41:02.431Z,44.97
2019-02-22T17:43:35.012Z,42.03
2019-02-22T17:46:06.937Z,27.87
2019-02-22T17:48:39.003Z,24.40
2019-02-22T17:51:10.836Z,25.80
2019-02-22T17:53:41.805Z,28.80
2019-02-22T17:56:13.269Z,32.40
2019-02-22T17:58:44.342Z,23.80
2019-02-22T18:01:15.474Z,29.23
2019-02-22T18:03:47.487Z,23.90
2019-02-22T18:06:23.312Z,29.10
2019-02-22T18:08:54.315Z,27.60
2019-02-22T18:11:25.746Z,36.93
2019-02-22T18:13:58.453Z,35.00
2019-02-22T18:16:33.173Z,26.90
2019-02-22T18:19:05.621Z,33.20
2019-02-22T18:21:37.520Z,30.30
2019-02-22T18:24:08.766Z,31.87
2019-02-22T18:26:39.811Z,41.90
2019-02-22T18:29:11.404Z,30.03
2019-02-22T18:31:42.504Z,35.43
2019-02-22T18:34:13.766Z,28.43
2019-02-22T18:36:45.732Z,43.17
2019-02-22T18:39:17.582Z,33.67
2019-02-22T18:41:49.045Z,33.07
2019-02-22T18:44:20.588Z,44.77
2019-02-22T18:46:52.254Z,34.57
2019-02-22T18:49:23.648Z,36.53
2019-02-22T18:51:54.936Z,34.13
2019-02-22T18:54:26.452Z,45.67
2019-02-22T18:56:57.505Z,37.40
2019-02-22T18:59:28.695Z,28.73
2019-02-22T19:01:59.508Z,40.33
2019-02-22T19:04:37.203Z,32.20
2019-02-22T19:07:09.318Z,51.00
2019-02-22T19:09:40.626Z,32.97
2019-02-22T19:12:12.037Z,33.20
2019-02-22T19:14:43.457Z,36.70
2019-02-22T19:17:14.663Z,32.57
2019-02-22T19:19:46.181Z,41.93
2019-02-22T19:22:17.244Z,37.53
2019-02-22T19:24:48.352Z,38.07
2019-02-22T19:27:19.624Z,33.37
2019-02-22T19:29:50.810Z,35.20
2019-02-22T19:32:21.893Z,37.40
2019-02-22T19:34:53.399Z,37.23
2019-02-22T19:37:24.465Z,35.93
2019-02-22T19:39:55.864Z,39.77
2019-02-22T19:42:27.424Z,41.27
2019-02-22T19:44:58.650Z,28.23
2019-02-22T19:47:29.724Z,34.93
2019-02-22T19:50:13.171Z,29.32
2019-02-22T19:52:44.053Z,38.43
2019-02-22T19:55:17.307Z,44.20
2019-02-22T19:57:48.499Z,51.20
2019-02-22T20:00:20.959Z,48.97
2019-02-22T20:02:53.291Z,42.73
2019-02-22T20:05:24.287Z,49.63
2019-02-22T20:07:58.379Z,59.67
2019-02-22T20:10:29.896Z,57.40
2019-02-22T20:13:00.901Z,58.63
2019-02-22T20:15:32.190Z,49.83
2019-02-22T20:18:04.225Z,53.40
2019-02-22T20:20:35.492Z,65.20
2019-02-22T20:23:06.827Z,54.73
2019-02-22T20:25:38.363Z,58.10
2019-02-22T20:28:09.724Z,47.23
2019-02-22T20:30:41.101Z,44.00
2019-02-22T20:33:12.239Z,48.03
2019-02-22T20:35:43.722Z,45.20
2019-02-22T20:38:15.170Z,61.10
2019-02-22T20:40:46.534Z,50.90
2019-02-22T20:43:17.607Z,55.60
2019-02-22T20:45:48.835Z,58.17
2019-02-22T20:48:27.853Z,45.30
2019-02-22T20:50:58.698Z,59.50
2019-02-22T20:53:29.818Z,68.83
2019-02-22T20:56:00.626Z,62.13
2019-02-22T20:58:31.806Z,81.07
2019-02-22T21:01:14.114Z,67.00
2019-02-22T21:03:36.103Z,67.43
2019-02-22T21:06:07.188Z,66.17
2019-02-22T21:08:39.070Z,79.53
2019-02-22T21:11:15.032Z,71.33
2019-02-22T21:13:45.966Z,73.83
2019-02-22T21:16:17.074Z,76.03
2019-02-22T21:18:51.461Z,68.97
2019-02-22T21:21:22.821Z,68.87
2019-02-22T21:23:54.007Z,64.03
2019-02-22T21:26:25.361Z,74.03
2019-02-22T21:28:56.411Z,67.47
2019-02-22T21:31:27.742Z,69.10
2019-02-22T21:33:59.156Z,62.67
2019-02-22T21:36:30.241Z,79.80
2019-02-22T21:39:01.020Z,70.47
2019-02-22T21:41:33.755Z,60.70
2019-02-22T21:44:04.775Z,55.13
2019-02-22T21:46:35.920Z,55.00
2019-02-22T21:49:06.957Z,57.90
2019-02-22T21:51:38.092Z,61.37
2019-02-22T21:54:09.018Z,52.37
2019-02-22T21:56:40.143Z,51.20
2019-02-22T21:59:11.244Z,62.73
2019-02-22T22:01:42.412Z,55.37
2019-02-22T22:04:13.371Z,51.43
2019-02-22T22:06:44.643Z,47.87
2019-02-22T22:09:15.633Z,37.83
2019-02-22T22:11:46.825Z,44.93
2019-02-22T22:14:18.054Z,40.17
2019-02-22T22:16:49.269Z,34.57
2019-02-22T22:19:20.671Z,35.40
2019-02-22T22:21:51.980Z,41.03
2019-02-22T22:24:23.038Z,30.33
2019-02-22T22:26:54.284Z,41.63
2019-02-22T22:29:25.546Z,34.93
2019-02-22T22:31:56.833Z,31.07
2019-02-22T22:34:31.521Z,38.17
2019-02-22T22:37:09.316Z,38.60
2019-02-22T22:39:40.610Z,33.30
2019-02-22T22:42:11.784Z,45.70
2019-02-22T22:44:42.881Z,42.27
2019-02-22T22:47:14.087Z,45.33
2019-02-22T22:49:45.319Z,39.57
2019-02-22T22:52:16.411Z,59.93
2019-02-22T22:54:47.656Z,36.00
2019-02-22T22:57:18.927Z,50.47
2019-02-22T22:59:51.227Z,45.43
2019-02-22T23:02:22.270Z,49.43
2019-02-22T23:04:53.094Z,51.33
2019-02-22T23:07:24.392Z,48.60
2019-02-22T23:09:55.712Z,43.58
2019-02-22T23:12:26.863Z,51.50
2019-02-22T23:14:57.982Z,42.57
2019-02-22T23:17:34.589Z,44.83
2019-02-22T23:20:04.170Z,42.17
2019-02-22T23:22:35.273Z,53.47
2019-02-22T23:25:06.425Z,43.45
2019-02-22T23:27:37.822Z,51.20
2019-02-22T23:30:09.423Z,45.80
2019-02-22T23:32:40.815Z,65.77
2019-02-22T23:35:11.972Z,45.37
2019-02-22T23:37:43.208Z,35.00
2019-02-22T23:40:14.414Z,40.03
2019-02-22T23:42:45.604Z,50.23
2019-02-22T23:45:17.003Z,50.23
2019-02-22T23:47:48.540Z,43.67
2019-02-22T23:50:22.858Z,52.97
2019-02-22T23:52:53.744Z,38.27
2019-02-22T23:55:24.909Z,44.93
2019-02-22T23:57:56.138Z,56.23
